createdAt,value
2019-02-22T00:02:40.692Z,1002.24
2019-02-22T00:06:10.696Z,1002.27
2019-02-22T00:09:49.092Z,1002.37
2019-02-22T00:13:21.049Z,1002.48
2019-02-22T00:16:51.103Z,1002.44
2019-02-22T00:20:21.174Z,1002.5
2019-02-22T00:23:51.276Z,1002.92
2019-02-22T00:27:21.418Z,1003.42
2019-02-22T00:30:51.460Z,1003.71
2019-02-22T00:34:21.735Z,1003.96
2019-02-22T00:37:51.905Z,1004.46
2019-02-22T00:41:21.967Z,1004.99
2019-02-22T00:44:52.119Z,1005.43
2019-02-22T00:48:22.131Z,1005.84
2019-02-22T00:51:52.223Z,1006.21
2019-02-22T00:55:22.500Z,1006.75
2019-02-22T00:58:52.521Z,1007.21
2019-02-22T01:02:22.550Z,1007.6
2019-02-22T01:05:52.574Z,1007.57
2019-02-22T01:09:22.725Z,1006.44
2019-02-22T01:12:52.799Z,1004.97
2019-02-22T01:16:23.889Z,1003.63
2019-02-22T01:19:53.914Z,1003.48
2019-02-22T01:23:23.987Z,1003.21
2019-02-22T01:26:54.026Z,1003.05
2019-02-22T01:30:24.068Z,1002.77
2019-02-22T01:33:54.337Z,1002.66
2019-02-22T01:37:24.423Z,1002.04
2019-02-22T01:40:54.515Z,1001.75
2019-02-22T01:44:24.597Z,1001.6
2019-02-22T01:47:54.624Z,1001.46
2019-02-22T01:51:24.678Z,1001.48
2019-02-22T01:54:54.685Z,1001.43
2019-02-22T01:58:24.799Z,1001.2
2019-02-22T02:00:16.200Z,1001.17
2019-02-22T02:03:46.259Z,1001.18
2019-02-22T02:07:16.291Z,1001.29
2019-02-22T02:10:53.926Z,1000.95
2019-02-22T02:14:24.566Z,1000.75
2019-02-22T02:17:55.747Z,1000.3
2019-02-22T02:21:25.880Z,1000.42
2019-02-22T02:24:55.982Z,1000.58
2019-02-22T02:28:26.144Z,1000.51
2019-02-22T02:31:56.167Z,1000.61
2019-02-22T02:35:26.169Z,1001.26
2019-02-22T02:38:56.254Z,1002.27
2019-02-22T02:42:26.373Z,1003.08
2019-02-22T02:45:56.415Z,1003.75
2019-02-22T02:49:26.462Z,1004.25
2019-02-22T02:52:56.490Z,1004.54
2019-02-22T02:56:26.592Z,1005.07
2019-02-22T02:59:56.755Z,1004.76
2019-02-22T03:03:26.727Z,1004.24
2019-02-22T03:07:05.698Z,1004.27
2019-02-22T03:10:35.712Z,1004.8
2019-02-22T03:14:05.843Z,1004.47
2019-02-22T03:17:35.965Z,1003.56
2019-02-22T03:21:07.058Z,1003.22
2019-02-22T03:24:37.310Z,1003.42
2019-02-22T03:28:07.459Z,1003.49
2019-02-22T03:31:37.439Z,1003.94
2019-02-22T03:35:07.526Z,1004.43
2019-02-22T03:38:37.589Z,1004.93
2019-02-22T03:42:07.772Z,1005.59
2019-02-22T03:45:37.933Z,1005.84
2019-02-22T03:49:08.099Z,1005.77
2019-02-22T03:52:43.425Z,1005.88
2019-02-22T03:56:13.580Z,1005.86
2019-02-22T03:59:43.623Z,1005.43
2019-02-22T04:00:16.222Z,1005.45
2019-02-22T04:03:46.424Z,1005.39
2019-02-22T04:07:16.408Z,1004.9
2019-02-22T04:10:46.471Z,1004.44
2019-02-22T04:14:16.514Z,1004.7
2019-02-22T04:17:46.553Z,1004.68
2019-02-22T04:21:17.506Z,1005.06
2019-02-22T04:24:47.608Z,1005.14
2019-02-22T04:28:17.630Z,1005.18
2019-02-22T04:31:47.691Z,1005.11
2019-02-22T04:35:17.784Z,1005.18
2019-02-22T04:38:47.836Z,1005.21
2019-02-22T04:42:17.916Z,1005.07
2019-02-22T04:45:48.011Z,1004.63
2019-02-22T04:49:18.054Z,1004.18
2019-02-22T04:52:48.205Z,1004.18
2019-02-22T04:56:18.218Z,1004.18
2019-02-22T04:59:48.229Z,1004.37
2019-02-22T05:03:18.326Z,1004.44
2019-02-22T05:06:48.375Z,1003.9
2019-02-22T05:10:18.447Z,1003.82
2019-02-22T05:13:48.638Z,1003.91
2019-02-22T05:17:18.642Z,1003.79
2019-02-22T05:20:48.702Z,1004.12
2019-02-22T05:24:19.746Z,1004.33
2019-02-22T05:27:49.980Z,1004.63
2019-02-22T05:31:20.065Z,1005.13
2019-02-22T05:34:50.141Z,1005.52
2019-02-22T05:38:20.094Z,1005.48
2019-02-22T05:41:50.177Z,1005.35
2019-02-22T05:45:20.218Z,1005.48
2019-02-22T05:48:50.281Z,1005.9
2019-02-22T05:52:20.263Z,1006.28
2019-02-22T05:55:50.245Z,1006.16
2019-02-22T05:59:20.278Z,1006.28
2019-02-22T06:00:17.201Z,1006.52
2019-02-22T06:03:47.540Z,1006.45
2019-02-22T06:07:17.687Z,1006.49
2019-02-22T06:10:47.714Z,1006.57
2019-02-22T06:14:17.746Z,1006.96
2019-02-22T06:17:48.101Z,1006.96
2019-02-22T06:21:18.081Z,1007.35
2019-02-22T06:24:48.390Z,1007.45
2019-02-22T06:28:18.508Z,1007.16
2019-02-22T06:31:48.574Z,1007.74
2019-02-22T06:35:18.711Z,1008.16
2019-02-22T06:38:48.716Z,1008.23
2019-02-22T06:42:18.635Z,1008.46
2019-02-22T06:45:48.721Z,1009.23
2019-02-22T06:49:18.841Z,1009.57
2019-02-22T06:52:48.901Z,1010.1
2019-02-22T06:56:18.924Z,1010.94
2019-02-22T06:59:49.005Z,1011.11
2019-02-22T07:03:19.085Z,1010.64
2019-02-22T07:06:49.190Z,1011.26
2019-02-22T07:10:19.278Z,1011.95
2019-02-22T07:13:49.268Z,1012.33
2019-02-22T07:17:19.317Z,1012.69
2019-02-22T07:20:49.319Z,1012.4
2019-02-22T07:24:19.422Z,1012.78
2019-02-22T07:27:50.606Z,1012.82
2019-02-22T07:31:20.746Z,1013.3
2019-02-22T07:34:50.919Z,1014.14
2019-02-22T07:38:20.958Z,1014.84
2019-02-22T07:41:50.994Z,1014.89
2019-02-22T07:45:21.136Z,1016.25
2019-02-22T07:48:51.240Z,1017.4
2019-02-22T07:52:21.340Z,1017.05
2019-02-22T07:55:51.423Z,1017.57
2019-02-22T07:59:21.446Z,1017.37
2019-02-22T08:00:16.727Z,1017.46
2019-02-22T08:03:47.150Z,1017.26
2019-02-22T08:07:17.441Z,1017.01
2019-02-22T08:10:47.569Z,1016.87
2019-02-22T08:14:17.652Z,1016.51
2019-02-22T08:17:47.818Z,1016.9
2019-02-22T08:21:17.839Z,1017.66
2019-02-22T08:24:47.984Z,1018.19
2019-02-22T08:28:19.217Z,1018.99
2019-02-22T08:31:49.326Z,1019.5
2019-02-22T08:35:19.422Z,1019.75
2019-02-22T08:38:49.413Z,1020.27
2019-02-22T08:42:19.494Z,1021.26
2019-02-22T08:45:49.611Z,1022.31
2019-02-22T08:49:19.639Z,1022.77
2019-02-22T08:52:49.653Z,1023.35
2019-02-22T08:56:19.645Z,1022.98
2019-02-22T08:59:49.758Z,1023.39
2019-02-22T09:03:19.745Z,1024.64
2019-02-22T09:06:52.342Z,1025.19
2019-02-22T09:10:22.554Z,1026.38
2019-02-22T09:13:52.713Z,1027.51
2019-02-22T09:17:22.969Z,1028.21
2019-02-22T09:20:53.095Z,1028.18
2019-02-22T09:24:23.225Z,1028.51
2019-02-22T09:27:53.327Z,1027.64
2019-02-22T09:31:23.469Z,1027.6
2019-02-22T09:34:53.569Z,1027.09
2019-02-22T09:38:23.718Z,1027.01
2019-02-22T09:41:53.777Z,1027.45
2019-02-22T09:45:24.688Z,1026.98
2019-02-22T09:48:54.922Z,1027.67
2019-02-22T09:52:24.995Z,1027.85
2019-02-22T09:55:55.307Z,1026.76
2019-02-22T09:59:25.319Z,1025.11
2019-02-22T10:00:16.970Z,1025.02
2019-02-22T10:03:47.073Z,1025.55
2019-02-22T10:07:17.185Z,1027.43
2019-02-22T10:10:47.307Z,1028.96
2019-02-22T10:14:17.420Z,1030.07
2019-02-22T10:17:47.563Z,1030.94
2019-02-22T10:21:17.615Z,1029.37
2019-02-22T10:24:48.034Z,1029.27
2019-02-22T10:28:18.297Z,1028.5
2019-02-22T10:31:49.437Z,1028.18
2019-02-22T10:35:19.397Z,1028.69
2019-02-22T10:38:49.600Z,1026.71
2019-02-22T10:42:19.630Z,1026.74
2019-02-22T10:45:49.775Z,1024.68
2019-02-22T10:49:19.856Z,1022.35
2019-02-22T10:52:49.928Z,1022.01
2019-02-22T10:56:20.030Z,1021.09
2019-02-22T10:59:50.230Z,1020.22
2019-02-22T11:03:20.295Z,1019.45
2019-02-22T11:06:50.467Z,1019.91
2019-02-22T11:10:20.510Z,1020.89
2019-02-22T11:13:50.662Z,1021.39
2019-02-22T11:17:20.659Z,1020.77
2019-02-22T11:20:50.728Z,1020.42
2019-02-22T11:24:20.954Z,1019.83
2019-02-22T11:27:51.096Z,1020.36
2019-02-22T11:31:21.160Z,1020.09
2019-02-22T11:34:51.361Z,1020.42
2019-02-22T11:38:21.510Z,1019.92
2019-02-22T11:41:51.548Z,1019.84
2019-02-22T11:45:21.707Z,1018.92
2019-02-22T11:48:51.726Z,1018.6
2019-02-22T11:52:21.817Z,1017.15
2019-02-22T11:55:52.060Z,1016.42
2019-02-22T11:59:22.050Z,1015.83
2019-02-22T12:00:18.210Z,1015.79
2019-02-22T12:03:48.343Z,1014.49
2019-02-22T12:07:18.375Z,1014.62
2019-02-22T12:10:48.560Z,1014.18
2019-02-22T12:14:18.775Z,1014.66
2019-02-22T12:17:48.866Z,1014.52
2019-02-22T12:21:18.940Z,1015.03
2019-02-22T12:24:48.988Z,1014.75
2019-02-22T12:28:19.102Z,1015.33
2019-02-22T12:31:49.321Z,1015.41
2019-02-22T12:35:19.492Z,1015.28
2019-02-22T12:38:49.633Z,1015.95
2019-02-22T12:42:19.675Z,1015.59
2019-02-22T12:45:49.797Z,1016
2019-02-22T12:49:19.807Z,1015.63
2019-02-22T12:52:49.908Z,1016.55
2019-02-22T12:56:21.583Z,1016.76
2019-02-22T13:00:02.472Z,1016.53
2019-02-22T13:03:32.522Z,1017.02
2019-02-22T13:07:02.653Z,1017.56
2019-02-22T13:10:32.730Z,1017.66
2019-02-22T13:14:02.994Z,1017.34
2019-02-22T13:17:33.060Z,1017.43
2019-02-22T13:21:03.229Z,1017.48
2019-02-22T13:24:33.317Z,1017.01
2019-02-22T13:28:03.417Z,1016.58
2019-02-22T13:31:33.506Z,1017.4
2019-02-22T13:35:04.045Z,1018.16
2019-02-22T13:38:35.005Z,1018.7
2019-02-22T13:42:05.120Z,1018.78
2019-02-22T13:45:35.302Z,1018.24
2019-02-22T13:49:05.817Z,1018.16
2019-02-22T13:52:35.901Z,1017.63
2019-02-22T13:56:06.064Z,1017.7
2019-02-22T13:59:36.059Z,1017.68
2019-02-22T14:00:16.484Z,1017.71
2019-02-22T14:03:46.594Z,1017.67
2019-02-22T14:07:16.628Z,1017.15
2019-02-22T14:10:46.677Z,1016.55
2019-02-22T14:14:16.826Z,1015.81
2019-02-22T14:17:47.037Z,1015.44
2019-02-22T14:21:17.053Z,1015.38
2019-02-22T14:24:47.104Z,1014.59
2019-02-22T14:28:17.073Z,1014.71
2019-02-22T14:31:47.193Z,1014.54
2019-02-22T14:35:17.335Z,1014.35
2019-02-22T14:38:48.440Z,1013.86
2019-02-22T14:42:18.697Z,1013.77
2019-02-22T14:45:52.197Z,1013.44
2019-02-22T14:49:23.165Z,1013.26
2019-02-22T14:52:53.338Z,1012.93
2019-02-22T14:56:23.541Z,1011.8
2019-02-22T14:59:53.714Z,1010.84
2019-02-22T15:03:23.769Z,1009.21
2019-02-22T15:06:53.910Z,1008.1
2019-02-22T15:10:23.903Z,1007.19
2019-02-22T15:13:53.957Z,1006.53
2019-02-22T15:17:30.760Z,1005.5
2019-02-22T15:21:00.933Z,1004.61
2019-02-22T15:24:32.969Z,1004.21
2019-02-22T15:28:03.249Z,1003.97
2019-02-22T15:31:36.086Z,1003.43
2019-02-22T15:35:09.170Z,1003.42
2019-02-22T15:38:39.138Z,1003.4
2019-02-22T15:42:10.177Z,1003.18
2019-02-22T15:45:40.313Z,1002.66
2019-02-22T15:49:10.469Z,1002.65
2019-02-22T15:52:40.613Z,1002.46
2019-02-22T15:56:10.560Z,1002.28
2019-02-22T15:59:40.717Z,1001.94
2019-02-22T16:00:19.801Z,1002
2019-02-22T16:03:54.135Z,1001.87
2019-02-22T16:07:24.321Z,1001.52
2019-02-22T16:10:54.500Z,1001.51
2019-02-22T16:14:24.495Z,1001.13
2019-02-22T16:17:54.602Z,1001.26
2019-02-22T16:21:24.659Z,1001.01
2019-02-22T16:24:54.756Z,1001.01
2019-02-22T16:28:24.743Z,1000.52
2019-02-22T16:31:54.850Z,1000.31
2019-02-22T16:35:24.927Z,999.73
2019-02-22T16:38:55.078Z,999.27
2019-02-22T16:42:26.131Z,999.02
2019-02-22T16:45:56.148Z,998.65
2019-02-22T16:49:26.145Z,998.15
2019-02-22T16:52:56.233Z,998.1
2019-02-22T16:56:26.320Z,997.61
2019-02-22T16:59:56.366Z,997.33
2019-02-22T17:03:26.423Z,997.28
2019-02-22T17:06:56.490Z,996.85
2019-02-22T17:10:26.477Z,997.04
2019-02-22T17:13:56.551Z,996.56
2019-02-22T17:17:26.451Z,996.56
2019-02-22T17:20:56.528Z,996.67
2019-02-22T17:24:26.531Z,996.67
2019-02-22T17:27:56.574Z,996.73
2019-02-22T17:31:26.579Z,996.27
2019-02-22T17:34:56.644Z,995.96
2019-02-22T17:38:26.713Z,995.64
2019-02-22T17:41:56.890Z,994.47
2019-02-22T17:45:27.910Z,993.86
2019-02-22T17:48:57.974Z,993.02
2019-02-22T17:52:28.011Z,992.39
2019-02-22T17:55:58.097Z,991.77
2019-02-22T17:59:28.115Z,991.19
2019-02-22T18:00:17.829Z,990.79
2019-02-22T18:03:47.892Z,990.82
2019-02-22T18:07:17.889Z,990.77
2019-02-22T18:10:48.131Z,990.35
2019-02-22T18:14:18.292Z,990.61
2019-02-22T18:17:48.449Z,990.43
2019-02-22T18:21:18.566Z,990.62
2019-02-22T18:24:48.663Z,990.35
2019-02-22T18:28:18.774Z,989.7
2019-02-22T18:31:49.007Z,989.22
2019-02-22T18:35:18.990Z,988.08
2019-02-22T18:38:49.060Z,987.37
2019-02-22T18:42:19.037Z,987.44
2019-02-22T18:45:50.064Z,986.55
2019-02-22T18:49:20.110Z,985.4
2019-02-22T18:52:50.118Z,984.88
2019-02-22T18:56:20.139Z,984.2
2019-02-22T18:59:50.181Z,984.14
2019-02-22T19:03:20.189Z,984.09
2019-02-22T19:06:50.576Z,983.38
2019-02-22T19:10:20.702Z,983.21
2019-02-22T19:13:50.704Z,982.63
2019-02-22T19:17:30.036Z,982.37
2019-02-22T19:21:00.577Z,981.99
2019-02-22T19:24:38.931Z,981.76
2019-02-22T19:28:09.064Z,982.15
2019-02-22T19:31:39.035Z,982.22
2019-02-22T19:35:09.136Z,982.02
2019-02-22T19:38:39.261Z,982.38
2019-02-22T19:42:09.753Z,982.58
2019-02-22T19:43:42.667Z,981.64
2019-02-22T19:47:13.672Z,981.91
2019-02-22T19:50:43.580Z,982.02
2019-02-22T19:54:13.631Z,982.07
2019-02-22T19:57:54.854Z,981.87
2019-02-22T20:00:15.883Z,981.69
2019-02-22T20:03:45.890Z,981.33
2019-02-22T20:07:16.069Z,982
2019-02-22T20:10:46.046Z,981.8
2019-02-22T20:14:16.107Z,982.22
2019-02-22T20:17:54.301Z,982.47
2019-02-22T20:21:25.044Z,982.49
2019-02-22T20:24:55.054Z,981.53
2019-02-22T20:28:25.184Z,981.13
2019-02-22T20:31:55.173Z,981.18
2019-02-22T20:35:25.309Z,980.64
2019-02-22T20:38:55.409Z,980.31
2019-02-22T20:42:25.498Z,980.37
2019-02-22T20:45:55.603Z,980.22
2019-02-22T20:49:26.635Z,979.92
2019-02-22T20:52:56.634Z,979.49
2019-02-22T20:56:26.593Z,978.94
2019-02-22T20:59:56.571Z,979.12
2019-02-22T21:03:26.670Z,978.97
2019-02-22T21:06:56.639Z,978.82
2019-02-22T21:10:26.707Z,978.59
2019-02-22T21:13:56.725Z,977.94
2019-02-22T21:17:26.785Z,977.26
2019-02-22T21:20:56.832Z,977.22
2019-02-22T21:24:27.001Z,977.03
2019-02-22T21:27:56.985Z,977.05
2019-02-22T21:31:27.200Z,976.65
2019-02-22T21:34:57.397Z,976.28
2019-02-22T21:38:27.514Z,976.02
2019-02-22T21:41:57.571Z,975.6
2019-02-22T21:45:27.641Z,975.11
2019-02-22T21:48:57.620Z,974.25
2019-02-22T21:52:27.789Z,973.51
2019-02-22T21:55:57.838Z,973.7
2019-02-22T21:59:28.056Z,973.76
2019-02-22T22:00:16.646Z,973.72
2019-02-22T22:03:46.674Z,973.51
2019-02-22T22:07:16.802Z,973.86
2019-02-22T22:10:46.861Z,973.25
2019-02-22T22:14:17.009Z,973.2
2019-02-22T22:17:47.167Z,972.69
2019-02-22T22:21:17.196Z,971.89
2019-02-22T22:24:47.215Z,972.07
2019-02-22T22:28:17.474Z,971.79
2019-02-22T22:31:47.563Z,971.13
2019-02-22T22:35:17.779Z,971.49
2019-02-22T22:38:47.712Z,971.58
2019-02-22T22:42:17.839Z,971.09
2019-02-22T22:45:47.810Z,970.73
2019-02-22T22:49:17.955Z,970.56
2019-02-22T22:52:49.038Z,970.04
2019-02-22T22:56:19.016Z,970.36
2019-02-22T22:59:49.009Z,969.62
2019-02-22T23:03:19.390Z,969.6
2019-02-22T23:06:49.395Z,969.1
2019-02-22T23:10:19.727Z,968.98
2019-02-22T23:13:49.711Z,968.09
2019-02-22T23:17:19.801Z,968.36
2019-02-22T23:20:49.921Z,967.78
2019-02-22T23:24:20.026Z,967.49
2019-02-22T23:27:50.072Z,967.34
2019-02-22T23:31:20.142Z,967.47
2019-02-22T23:34:50.174Z,967.19
2019-02-22T23:38:20.265Z,967.22
2019-02-22T23:41:50.247Z,967.35
2019-02-22T23:45:20.429Z,967.09
2019-02-22T23:48:50.472Z,966.57
2019-02-22T23:52:20.495Z,966.72
2019-02-22T23:55:51.413Z,966.34
2019-02-22T23:59:21.426Z,965.97
